Time;durP1;ratioP1;P1;durP2;ratioP2;P2;SDS_P1;SDS_P2;PMS_P1;PMS_P2;Temp;Humidity;BMP_temperature;BMP_pressure;BME280_temperature;BME280_humidity;BME280_pressure;Samples;Min_cycle;Max_cycle;Signal;HPM_P1;HPM_P2
2023/09/17 00:01:12;;;;;;;17.50;15.80;;;15.40;99.90;;;;;;4812204;29;20050;-82
2023/09/17 00:03:37;;;;;;;18.65;16.65;;;15.50;99.90;;;;;;4809917;29;20050;-82
2023/09/17 00:06:04;;;;;;;17.60;15.82;;;15.60;99.90;;;;;;4811194;29;20046;-83
2023/09/17 00:08:29;;;;;;;17.17;15.43;;;15.40;99.90;;;;;;4813372;29;20530;-82
2023/09/17 00:10:55;;;;;;;17.17;15.57;;;15.40;99.90;;;;;;4813020;29;20046;-82
2023/09/17 00:13:21;;;;;;;18.15;16.35;;;16.50;99.90;;;;;;4812727;29;20050;-82
2023/09/17 00:15:47;;;;;;;17.92;16.17;;;15.40;99.90;;;;;;4810181;29;20039;-81
2023/09/17 00:18:13;;;;;;;17.70;16.00;;;15.40;99.90;;;;;;4809804;29;20054;-81
2023/09/17 00:20:38;;;;;;;18.42;16.63;;;15.30;99.90;;;;;;4814317;29;20074;-83
2023/09/17 00:23:04;;;;;;;18.38;16.58;;;15.30;99.90;;;;;;4796811;29;20218;-82
2023/09/17 00:25:30;;;;;;;17.70;16.02;;;15.20;99.90;;;;;;4806107;29;20115;-81
2023/09/17 00:27:56;;;;;;;17.35;15.57;;;15.20;99.90;;;;;;4812586;29;20153;-83
2023/09/17 00:30:22;;;;;;;17.70;16.02;;;15.20;99.90;;;;;;4812033;29;20391;-82
2023/09/17 00:32:48;;;;;;;17.70;16.17;;;15.20;99.90;;;;;;4810449;29;20090;-82
2023/09/17 00:35:13;;;;;;;17.35;15.65;;;16.00;99.90;;;;;;4811247;29;20084;-82
2023/09/17 00:37:40;;;;;;;17.20;15.40;;;15.20;99.90;;;;;;4815103;29;20420;-82
2023/09/17 00:40:07;;;;;;;18.48;16.77;;;15.10;99.90;;;;;;4812983;29;20121;-82
2023/09/17 00:42:33;;;;;;;17.95;16.13;;;15.10;99.90;;;;;;4814470;29;20043;-83
2023/09/17 00:44:59;;;;;;;18.25;16.65;;;15.10;99.90;;;;;;4817293;29;20098;-80
2023/09/17 00:47:24;;;;;;;19.25;17.25;;;15.10;99.90;;;;;;4820795;29;20518;-82
2023/09/17 00:49:50;;;;;;;17.02;15.50;;;15.00;99.90;;;;;;4813344;29;20054;-83
2023/09/17 00:52:20;;;;;;;16.88;15.32;;;15.00;99.90;;;;;;4814568;29;20093;-81
2023/09/17 00:54:48;;;;;;;17.85;16.15;;;15.00;99.90;;;;;;4816966;29;20133;-83
2023/09/17 00:57:17;;;;;;;18.90;15.98;;;15.10;99.90;;;;;;4815221;29;20038;-82
2023/09/17 00:59:47;;;;;;;19.05;17.23;;;15.10;99.90;;;;;;4819171;29;20507;-81
2023/09/17 01:02:18;;;;;;;18.17;16.48;;;15.30;99.90;;;;;;4813237;29;20085;-82
2023/09/17 01:04:49;;;;;;;17.95;16.25;;;15.10;99.90;;;;;;4817037;29;20050;-82
2023/09/17 01:07:16;;;;;;;18.52;16.92;;;15.10;99.90;;;;;;4816905;29;20043;-81
2023/09/17 01:09:43;;;;;;;18.33;16.35;;;15.70;99.90;;;;;;4812065;29;20089;-81
2023/09/17 01:12:09;;;;;;;17.70;16.08;;;15.00;99.90;;;;;;4813122;29;20049;-81
2023/09/17 01:14:36;;;;;;;17.38;15.70;;;15.00;99.90;;;;;;4815989;29;20091;-82
2023/09/17 01:17:03;;;;;;;17.25;15.45;;;16.40;99.90;;;;;;4816561;29;20058;-82
2023/09/17 01:19:29;;;;;;;17.20;15.52;;;15.00;99.90;;;;;;4814664;29;20183;-81
2023/09/17 01:22:16;;;;;;;17.95;16.23;;;15.10;99.90;;;;;;4813426;29;20039;-81
2023/09/17 01:24:48;;;;;;;18.42;16.65;;;15.10;99.90;;;;;;4826853;29;20137;-81
2023/09/17 01:27:15;;;;;;;19.42;17.45;;;15.10;99.90;;;;;;4820739;29;20485;-82
2023/09/17 01:29:42;;;;;;;20.42;18.20;;;15.80;99.90;;;;;;4821261;29;20047;-80
2023/09/17 01:32:11;;;;;;;20.73;18.55;;;16.10;99.90;;;;;;4811588;29;20518;-82
2023/09/17 01:34:40;;;;;;;20.58;18.60;;;15.10;99.90;;;;;;4817715;29;20133;-82
2023/09/17 01:37:18;;;;;;;20.65;18.65;;;16.00;99.90;;;;;;4816156;29;20487;-82
2023/09/17 01:39:54;;;;;;;20.75;18.55;;;15.10;99.90;;;;;;4812652;29;20047;-82
2023/09/17 01:42:22;;;;;;;19.02;17.23;;;15.00;99.90;;;;;;4814061;29;20438;-82
2023/09/17 01:44:49;;;;;;;21.00;18.92;;;15.60;99.90;;;;;;4814900;29;20079;-82
2023/09/17 01:47:16;;;;;;;18.95;17.15;;;15.00;99.90;;;;;;4814507;29;20491;-81
2023/09/17 01:49:44;;;;;;;20.35;18.45;;;16.20;99.90;;;;;;4792532;29;20065;-82
2023/09/17 01:52:11;;;;;;;19.85;17.92;;;15.10;99.90;;;;;;4817085;29;20637;-81
2023/09/17 01:54:36;;;;;;;21.52;19.52;;;15.10;99.90;;;;;;4813733;29;20046;-82
2023/09/17 01:57:02;;;;;;;19.27;17.30;;;15.50;99.90;;;;;;4816064;29;20050;-81
2023/09/17 01:59:28;;;;;;;20.25;18.35;;;15.00;99.90;;;;;;4822847;29;20129;-82
2023/09/17 02:01:53;;;;;;;20.25;18.45;;;15.50;99.90;;;;;;4818906;29;20046;-82
2023/09/17 02:04:19;;;;;;;21.05;19.10;;;16.00;99.90;;;;;;4821665;29;20043;-82
2023/09/17 02:06:45;;;;;;;21.13;18.92;;;15.00;99.90;;;;;;4822988;29;20038;-80
2023/09/17 02:09:12;;;;;;;21.38;19.38;;;15.40;99.90;;;;;;4822786;29;20038;-82
2023/09/17 02:11:38;;;;;;;22.23;19.92;;;15.00;99.90;;;;;;4819934;29;20559;-80
2023/09/17 02:14:04;;;;;;;21.88;19.63;;;15.00;99.90;;;;;;4822443;29;20042;-83
2023/09/17 02:16:31;;;;;;;22.48;20.27;;;15.00;99.90;;;;;;4823275;29;20447;-81
2023/09/17 02:18:58;;;;;;;21.35;19.45;;;15.00;99.90;;;;;;4821937;29;20404;-82
2023/09/17 02:21:24;;;;;;;23.98;21.73;;;15.00;99.90;;;;;;4822481;29;20167;-82
2023/09/17 02:23:51;;;;;;;24.15;21.73;;;15.00;99.90;;;;;;4822354;29;20606;-81
2023/09/17 02:26:16;;;;;;;22.40;20.10;;;15.00;99.90;;;;;;4823224;29;20042;-83
2023/09/17 02:28:42;;;;;;;22.45;20.38;;;15.00;99.90;;;;;;4821829;29;20504;-82
2023/09/17 02:31:07;;;;;;;22.50;20.30;;;15.90;99.90;;;;;;4818520;29;20393;-82
2023/09/17 02:33:33;;;;;;;21.58;19.65;;;15.00;99.90;;;;;;4822855;29;20073;-82
2023/09/17 02:35:59;;;;;;;22.17;19.85;;;15.60;99.90;;;;;;4821840;29;20170;-80
2023/09/17 02:38:26;;;;;;;23.50;21.25;;;15.10;99.90;;;;;;4822659;29;20050;-82
2023/09/17 02:40:52;;;;;;;23.70;21.42;;;15.10;99.90;;;;;;4822223;29;20046;-82
2023/09/17 02:43:17;;;;;;;26.33;23.90;;;15.10;99.90;;;;;;4821936;29;20503;-81
2023/09/17 02:45:44;;;;;;;23.33;21.02;;;15.00;99.90;;;;;;4807895;29;20046;-82
2023/09/17 02:48:11;;;;;;;22.50;20.35;;;15.10;99.90;;;;;;4828585;29;20061;-82
2023/09/17 02:50:39;;;;;;;23.73;21.42;;;15.10;99.90;;;;;;4820638;29;20114;-80
2023/09/17 02:53:08;;;;;;;23.75;21.52;;;15.20;99.90;;;;;;4817618;29;20042;-81
2023/09/17 02:55:34;;;;;;;22.98;20.70;;;15.20;99.90;;;;;;4816185;29;20142;-83
2023/09/17 02:58:02;;;;;;;24.50;22.02;;;15.20;99.90;;;;;;4812624;29;20058;-82
2023/09/17 03:00:33;;;;;;;23.23;21.13;;;15.30;99.90;;;;;;4814210;29;20076;-80
2023/09/17 03:02:59;;;;;;;22.77;20.67;;;15.30;99.90;;;;;;4815095;29;20042;-83
2023/09/17 03:05:24;;;;;;;22.35;20.10;;;15.30;99.90;;;;;;4813131;29;20506;-82
2023/09/17 03:07:50;;;;;;;23.92;21.48;;;15.30;99.90;;;;;;4811200;29;20117;-82
2023/09/17 03:10:18;;;;;;;28.60;25.52;;;15.40;99.90;;;;;;4813983;29;20610;-83
2023/09/17 03:12:48;;;;;;;24.30;22.05;;;15.40;99.90;;;;;;4814597;29;20050;-83
2023/09/17 03:15:14;;;;;;;26.45;23.70;;;15.40;99.90;;;;;;4814103;29;20053;-82
2023/09/17 03:17:41;;;;;;;24.73;22.42;;;15.30;99.90;;;;;;4811904;29;20070;-82
2023/09/17 03:20:16;;;;;;;25.33;22.77;;;15.30;99.90;;;;;;4810619;29;20385;-82
2023/09/17 03:22:43;;;;;;;23.05;20.73;;;15.40;99.90;;;;;;4813655;29;20046;-82
2023/09/17 03:25:09;;;;;;;22.67;20.48;;;15.30;99.90;;;;;;4813013;29;20487;-80
2023/09/17 03:27:34;;;;;;;23.65;21.38;;;15.40;99.90;;;;;;4811939;29;20103;-83
2023/09/17 03:30:03;;;;;;;24.10;21.77;;;15.50;99.90;;;;;;4811770;29;20077;-82
2023/09/17 03:32:29;;;;;;;25.35;22.67;;;15.60;99.90;;;;;;4810192;29;20081;-82
2023/09/17 03:34:55;;;;;;;25.55;22.85;;;15.70;99.90;;;;;;4812899;29;20046;-82
2023/09/17 03:37:21;;;;;;;24.75;22.35;;;15.50;99.90;;;;;;4813139;29;20781;-82
2023/09/17 03:40:10;;;;;;;28.70;25.73;;;15.50;99.90;;;;;;4810913;29;20573;-83
2023/09/17 03:42:40;;;;;;;30.30;27.45;;;15.60;99.90;;;;;;4812744;29;20051;-83
2023/09/17 03:45:10;;;;;;;24.98;22.38;;;15.60;99.90;;;;;;4814592;29;20054;-80
2023/09/17 03:47:37;;;;;;;27.52;24.60;;;15.60;99.90;;;;;;4806020;29;20724;-81
2023/09/17 03:50:06;;;;;;;29.05;25.20;;;15.60;99.90;;;;;;4814264;29;20046;-82
2023/09/17 03:52:41;;;;;;;23.83;21.52;;;15.50;99.90;;;;;;4813116;29;20054;-82
2023/09/17 03:55:07;;;;;;;24.70;22.27;;;16.70;99.90;;;;;;4811295;29;20073;-83
2023/09/17 03:57:35;;;;;;;26.00;23.17;;;15.60;99.90;;;;;;4811629;29;20055;-82
2023/09/17 04:00:06;;;;;;;23.98;21.67;;;16.30;99.90;;;;;;4813762;29;20110;-81
2023/09/17 04:02:39;;;;;;;22.77;20.60;;;15.60;99.90;;;;;;4813626;29;20043;-82
2023/09/17 04:05:09;;;;;;;22.75;20.40;;;15.60;99.90;;;;;;4810050;29;20059;-82
2023/09/17 04:07:34;;;;;;;22.80;20.40;;;15.60;99.90;;;;;;4811449;29;20515;-82
2023/09/17 04:10:00;;;;;;;21.45;19.52;;;15.70;99.90;;;;;;4817105;29;20082;-83
2023/09/17 04:12:26;;;;;;;24.15;21.67;;;15.70;99.90;;;;;;4811656;29;20133;-82
2023/09/17 04:14:52;;;;;;;22.60;20.30;;;15.80;99.90;;;;;;4813543;29;20437;-83
2023/09/17 04:17:19;;;;;;;24.35;21.90;;;15.70;99.90;;;;;;4813860;29;20050;-80
2023/09/17 04:19:45;;;;;;;23.38;20.95;;;15.70;99.90;;;;;;4816034;29;20054;-83
2023/09/17 04:22:11;;;;;;;24.15;21.85;;;15.70;99.90;;;;;;4813213;29;20555;-82
2023/09/17 04:24:38;;;;;;;23.40;21.05;;;15.70;99.90;;;;;;4814367;29;20411;-82
2023/09/17 04:27:04;;;;;;;29.48;24.17;;;15.70;99.90;;;;;;4817354;29;20334;-82
2023/09/17 04:29:30;;;;;;;25.02;22.55;;;15.70;99.90;;;;;;4817474;29;20129;-82
2023/09/17 04:31:55;;;;;;;24.90;22.27;;;15.70;99.90;;;;;;4814630;29;20137;-81
2023/09/17 04:34:22;;;;;;;23.17;20.55;;;15.70;99.90;;;;;;4813477;29;20058;-82
2023/09/17 04:36:48;;;;;;;25.45;22.17;;;15.70;99.90;;;;;;4820723;29;20126;-80
2023/09/17 04:39:14;;;;;;;24.25;21.92;;;15.80;99.90;;;;;;4814799;29;20058;-83
2023/09/17 04:41:40;;;;;;;24.58;21.98;;;15.80;99.90;;;;;;4813536;29;20130;-83
2023/09/17 04:44:07;;;;;;;27.70;23.58;;;15.80;99.90;;;;;;4820001;29;20126;-82
2023/09/17 04:46:44;;;;;;;26.23;23.58;;;15.80;99.90;;;;;;4814456;29;20047;-82
2023/09/17 04:49:10;;;;;;;25.20;22.50;;;15.80;99.90;;;;;;4817148;29;20038;-82
2023/09/17 04:51:36;;;;;;;25.85;22.45;;;15.80;99.90;;;;;;4816860;29;20069;-82
2023/09/17 04:54:03;;;;;;;26.52;23.83;;;15.80;99.90;;;;;;4812795;29;20476;-82
2023/09/17 04:56:31;;;;;;;33.10;27.63;;;15.80;99.90;;;;;;4813541;29;20588;-83
2023/09/17 04:58:58;;;;;;;29.17;26.23;;;15.90;99.90;;;;;;4823866;29;20137;-82
2023/09/17 05:01:24;;;;;;;29.85;26.73;;;16.00;99.90;;;;;;4817276;29;20130;-82
2023/09/17 05:03:50;;;;;;;34.40;25.63;;;15.90;99.90;;;;;;4823352;29;20072;-81
2023/09/17 05:06:16;;;;;;;31.00;26.17;;;15.80;99.90;;;;;;4819481;29;20047;-83
2023/09/17 05:08:41;;;;;;;27.30;24.45;;;15.90;99.90;;;;;;4821076;29;20477;-82
2023/09/17 05:11:07;;;;;;;26.17;23.60;;;15.90;99.90;;;;;;4822820;29;20063;-81
2023/09/17 05:13:33;;;;;;;25.60;22.85;;;15.90;99.90;;;;;;4816828;29;20042;-83
2023/09/17 05:15:58;;;;;;;27.65;24.98;;;15.90;99.90;;;;;;4820120;29;20809;-82
2023/09/17 05:18:24;;;;;;;27.40;24.30;;;15.90;99.90;;;;;;4813302;29;20054;-81
2023/09/17 05:20:53;;;;;;;28.80;25.67;;;15.90;99.90;;;;;;4815235;29;20415;-81
2023/09/17 05:23:19;;;;;;;26.77;23.60;;;16.00;99.90;;;;;;4816944;29;20050;-82
2023/09/17 05:25:45;;;;;;;31.77;28.38;;;16.00;99.90;;;;;;4814654;29;20495;-82
2023/09/17 05:28:11;;;;;;;29.20;25.90;;;16.00;99.90;;;;;;4818423;29;20070;-81
2023/09/17 05:30:37;;;;;;;30.58;26.00;;;16.00;99.90;;;;;;4811990;29;20055;-83
2023/09/17 05:33:04;;;;;;;28.85;26.20;;;16.00;99.90;;;;;;4814628;29;20103;-82
2023/09/17 05:35:30;;;;;;;29.40;26.13;;;16.00;99.90;;;;;;4816852;29;20145;-82
2023/09/17 05:37:56;;;;;;;28.85;25.95;;;16.00;99.90;;;;;;4812517;29;20077;-83
2023/09/17 05:40:22;;;;;;;28.73;25.27;;;16.00;99.90;;;;;;4813729;29;20081;-83
2023/09/17 05:42:48;;;;;;;33.00;29.02;;;16.10;99.90;;;;;;4814063;29;20047;-82
2023/09/17 05:45:13;;;;;;;34.63;30.90;;;16.10;99.90;;;;;;4814710;29;20371;-83
2023/09/17 05:47:41;;;;;;;33.05;28.63;;;16.10;99.90;;;;;;4816027;29;20050;-80
2023/09/17 05:50:08;;;;;;;29.38;26.45;;;17.00;99.90;;;;;;4813674;29;20059;-82
2023/09/17 05:52:33;;;;;;;30.65;27.17;;;16.10;99.90;;;;;;4812403;29;20538;-82
2023/09/17 05:55:00;;;;;;;28.95;26.15;;;16.80;99.90;;;;;;4815582;29;20133;-82
2023/09/17 05:57:26;;;;;;;31.25;28.00;;;16.10;99.90;;;;;;4815935;29;20050;-83
2023/09/17 05:59:52;;;;;;;30.63;27.40;;;17.30;99.90;;;;;;4807032;29;20141;-87
2023/09/17 06:02:17;;;;;;;29.38;26.20;;;16.20;99.90;;;;;;4822137;29;20042;-82
2023/09/17 06:04:43;;;;;;;27.95;25.20;;;16.20;99.90;;;;;;4816105;29;20129;-82
2023/09/17 06:07:09;;;;;;;29.95;27.00;;;17.20;99.90;;;;;;4819055;29;20091;-85
2023/09/17 06:09:49;;;;;;;29.05;26.05;;;16.20;99.90;;;;;;4600177;29;10001436;-85
2023/09/17 06:12:17;;;;;;;29.15;26.10;;;16.20;99.90;;;;;;4817399;29;20737;-82
2023/09/17 06:14:43;;;;;;;29.20;25.90;;;16.20;99.90;;;;;;4797502;29;20457;-84
2023/09/17 06:17:09;;;;;;;28.67;25.77;;;16.20;99.90;;;;;;4820748;29;20046;-85
2023/09/17 06:19:37;;;;;;;30.58;27.42;;;17.20;99.90;;;;;;4819472;29;20049;-82
2023/09/17 06:22:03;;;;;;;29.50;26.50;;;16.30;99.90;;;;;;4817748;29;20468;-81
2023/09/17 06:24:28;;;;;;;28.55;25.33;;;16.30;99.90;;;;;;4817354;29;20050;-82
2023/09/17 06:26:55;;;;;;;28.50;25.73;;;16.30;99.90;;;;;;4813809;29;20178;-81
2023/09/17 06:29:21;;;;;;;29.92;26.88;;;16.30;99.90;;;;;;4810899;29;20054;-81
2023/09/17 06:31:47;;;;;;;29.15;26.05;;;16.30;99.90;;;;;;4813679;29;20257;-82
2023/09/17 06:34:13;;;;;;;29.25;26.27;;;16.40;99.90;;;;;;4818694;29;20042;-84
2023/09/17 06:36:38;;;;;;;31.17;27.98;;;16.40;99.90;;;;;;4818951;29;20507;-81
2023/09/17 06:39:07;;;;;;;29.23;26.15;;;16.40;99.90;;;;;;4819287;29;20164;-81
2023/09/17 06:41:33;;;;;;;28.23;25.42;;;16.40;99.90;;;;;;4817880;29;20081;-83
2023/09/17 06:43:59;;;;;;;31.08;27.75;;;16.40;99.90;;;;;;4817995;29;20073;-81
2023/09/17 06:46:25;;;;;;;26.38;23.77;;;16.50;99.90;;;;;;4819060;29;20640;-81
2023/09/17 06:48:52;;;;;;;27.38;24.30;;;16.50;99.90;;;;;;4813047;29;20059;-82
2023/09/17 06:51:18;;;;;;;27.17;24.40;;;16.50;99.90;;;;;;4812646;29;20043;-83
2023/09/17 06:53:44;;;;;;;27.50;24.67;;;16.50;99.90;;;;;;4812265;29;20078;-81
2023/09/17 06:56:13;;;;;;;29.05;25.67;;;16.60;99.90;;;;;;4811773;29;20039;-82
2023/09/17 06:58:38;;;;;;;25.63;23.02;;;16.60;99.90;;;;;;4812048;29;20069;-82
2023/09/17 07:01:05;;;;;;;25.95;23.38;;;16.70;99.90;;;;;;4810673;29;20415;-82
2023/09/17 07:03:31;;;;;;;27.33;24.73;;;16.70;99.90;;;;;;4819421;29;20138;-79
2023/09/17 07:05:56;;;;;;;28.13;25.17;;;16.70;99.90;;;;;;4820331;29;20049;-81
2023/09/17 07:08:22;;;;;;;26.10;22.98;;;16.70;99.90;;;;;;4819132;29;20050;-81
2023/09/17 07:10:48;;;;;;;24.98;22.40;;;16.80;99.90;;;;;;4819498;29;20392;-81
2023/09/17 07:13:13;;;;;;;27.17;24.60;;;16.80;99.90;;;;;;4819007;29;20051;-80
2023/09/17 07:15:39;;;;;;;25.60;23.00;;;16.90;99.90;;;;;;4818017;29;20050;-83
2023/09/17 07:18:08;;;;;;;26.60;24.00;;;16.90;99.90;;;;;;4820191;29;20599;-84
2023/09/17 07:20:34;;;;;;;26.33;23.67;;;17.00;99.90;;;;;;4824772;29;20148;-90
2023/09/17 07:22:59;;;;;;;26.30;23.73;;;17.00;99.90;;;;;;4824385;29;20513;-88
2023/09/17 07:25:25;;;;;;;25.58;23.25;;;17.30;99.90;;;;;;4818532;29;20138;-91
2023/09/17 07:27:51;;;;;;;25.05;22.85;;;17.10;99.90;;;;;;4805495;29;20054;-88
2023/09/17 07:30:17;;;;;;;25.45;22.77;;;17.60;99.90;;;;;;4810930;29;20043;-90
2023/09/17 07:32:43;;;;;;;24.85;22.30;;;17.80;99.90;;;;;;4811848;29;20058;-93
2023/09/17 07:35:08;;;;;;;26.48;23.70;;;17.10;99.90;;;;;;4819615;29;20081;-89
2023/09/17 07:37:34;;;;;;;27.20;24.45;;;17.20;99.90;;;;;;4488016;29;10000255;-88
2023/09/17 07:40:02;;;;;;;25.88;23.27;;;17.90;99.90;;;;;;4814792;29;20059;-88
2023/09/17 07:42:28;;;;;;;25.52;22.48;;;17.20;99.90;;;;;;4795074;29;20043;-87
2023/09/17 07:44:53;;;;;;;27.30;24.48;;;17.20;99.90;;;;;;4808405;29;20081;-88
2023/09/17 07:47:19;;;;;;;26.45;23.92;;;18.10;99.90;;;;;;4812983;29;20098;-87
2023/09/17 07:49:45;;;;;;;26.10;23.55;;;17.20;99.90;;;;;;4812916;29;20066;-87
2023/09/17 07:52:12;;;;;;;25.45;23.00;;;16.60;99.90;;;;;;4810272;29;20108;-86
2023/09/17 07:54:39;;;;;;;26.67;22.98;;;17.30;99.90;;;;;;4819133;29;20512;-90
2023/09/17 07:57:07;;;;;;;25.27;22.77;;;17.30;99.90;;;;;;4813731;29;20050;-91
2023/09/17 07:59:32;;;;;;;27.35;24.60;;;17.30;99.90;;;;;;4813795;29;20574;-87
2023/09/17 08:02:01;;;;;;;25.80;23.02;;;17.30;99.90;;;;;;4804880;29;20047;-88
2023/09/17 08:04:28;;;;;;;24.92;22.58;;;17.30;99.90;;;;;;4822477;29;20054;-87
2023/09/17 08:06:53;;;;;;;28.58;22.80;;;17.30;99.90;;;;;;4809134;29;20548;-92
2023/09/17 08:09:21;;;;;;;24.48;22.08;;;17.30;99.90;;;;;;4816148;29;20038;-89
2023/09/17 08:11:47;;;;;;;23.30;20.98;;;17.90;99.90;;;;;;4818914;29;20062;-95
2023/09/17 08:14:14;;;;;;;23.23;20.83;;;17.30;99.90;;;;;;4811538;29;20054;-90
2023/09/17 08:16:40;;;;;;;21.95;19.75;;;17.40;99.90;;;;;;4813321;29;20130;-89
2023/09/17 08:19:06;;;;;;;21.25;19.15;;;17.30;99.90;;;;;;4819579;29;20062;-90
2023/09/17 08:21:32;;;;;;;21.90;19.70;;;17.80;99.90;;;;;;4807123;29;20507;-85
2023/09/17 08:23:58;;;;;;;23.10;20.67;;;17.40;99.90;;;;;;4821521;29;20400;-89
2023/09/17 08:26:27;;;;;;;25.80;23.10;;;17.40;99.90;;;;;;4812638;29;20062;-94
2023/09/17 08:28:55;;;;;;;25.58;23.00;;;17.40;99.90;;;;;;4811928;29;20051;-88
2023/09/17 08:31:22;;;;;;;24.90;22.45;;;17.30;99.90;;;;;;4820521;29;20118;-86
2023/09/17 08:33:48;;;;;;;25.60;22.92;;;17.40;99.90;;;;;;4812590;29;20058;-86
2023/09/17 08:36:15;;;;;;;23.98;21.67;;;17.90;99.90;;;;;;4811347;29;20055;-90
2023/09/17 08:38:42;;;;;;;23.73;21.40;;;17.80;99.90;;;;;;4795989;29;20508;-85
2023/09/17 08:41:08;;;;;;;22.95;20.75;;;18.40;99.90;;;;;;4813755;29;20456;-84
2023/09/17 08:43:34;;;;;;;23.73;21.48;;;17.40;99.90;;;;;;4817005;29;20103;-88
2023/09/17 08:46:01;;;;;;;24.88;21.30;;;17.40;99.90;;;;;;4810182;29;20373;-87
2023/09/17 08:48:26;;;;;;;21.27;19.17;;;17.60;99.90;;;;;;4812818;29;20058;-88
2023/09/17 08:50:54;;;;;;;21.27;19.10;;;17.40;99.90;;;;;;4794260;29;20054;-88
2023/09/17 08:53:26;;;;;;;21.60;19.48;;;17.40;99.90;;;;;;4810097;29;20092;-87
2023/09/17 08:55:55;;;;;;;20.95;18.75;;;17.40;99.90;;;;;;4793651;29;20054;-87
2023/09/17 08:58:32;;;;;;;21.75;19.48;;;17.40;99.90;;;;;;4812262;29;20050;-86
2023/09/17 09:01:03;;;;;;;22.33;20.05;;;17.40;99.90;;;;;;4812755;29;20050;-87
2023/09/17 09:03:33;;;;;;;23.05;20.77;;;17.40;99.90;;;;;;4818392;29;20053;-86
2023/09/17 09:06:00;;;;;;;20.83;18.75;;;17.70;99.90;;;;;;4812422;29;20393;-87
2023/09/17 09:08:27;;;;;;;22.92;20.60;;;17.40;99.90;;;;;;4815241;29;20175;-87
2023/09/17 09:10:53;;;;;;;22.80;20.70;;;17.50;99.90;;;;;;4813502;29;20149;-86
2023/09/17 09:13:21;;;;;;;24.27;21.75;;;17.50;99.90;;;;;;4812010;29;20046;-87
2023/09/17 09:15:47;;;;;;;24.52;22.00;;;17.50;99.90;;;;;;4811035;29;20063;-87
2023/09/17 09:18:13;;;;;;;23.42;21.02;;;17.50;99.90;;;;;;4812455;29;20108;-87
2023/09/17 09:20:40;;;;;;;23.92;21.60;;;17.50;99.90;;;;;;4815773;29;20050;-86
2023/09/17 09:23:07;;;;;;;22.98;19.83;;;17.50;99.90;;;;;;4814258;29;20042;-86
2023/09/17 09:25:33;;;;;;;24.55;21.98;;;18.20;99.90;;;;;;4812697;29;20057;-87
2023/09/17 09:28:00;;;;;;;25.25;21.48;;;18.30;99.90;;;;;;4812256;29;20038;-87
2023/09/17 09:30:27;;;;;;;23.38;21.08;;;17.60;99.90;;;;;;4816213;29;20065;-87
2023/09/17 09:32:52;;;;;;;24.00;21.70;;;17.50;99.90;;;;;;4815112;29;20062;-87
2023/09/17 09:35:19;;;;;;;24.25;21.73;;;18.50;99.90;;;;;;4799196;29;20050;-87
2023/09/17 09:37:45;;;;;;;24.23;21.95;;;17.50;99.90;;;;;;4797582;29;20058;-87
2023/09/17 09:40:14;;;;;;;23.45;21.25;;;17.70;99.90;;;;;;4798460;29;20094;-87
2023/09/17 09:42:39;;;;;;;30.70;23.65;;;17.50;99.90;;;;;;4816496;29;20039;-87
2023/09/17 09:45:11;;;;;;;26.58;21.92;;;17.50;99.90;;;;;;4814388;29;20421;-86
2023/09/17 09:47:37;;;;;;;24.88;22.17;;;17.40;99.90;;;;;;4813419;29;20048;-85
2023/09/17 09:50:03;;;;;;;24.70;22.30;;;17.40;99.90;;;;;;4813149;29;20042;-85
2023/09/17 09:52:29;;;;;;;24.75;22.23;;;17.40;99.90;;;;;;4815689;29;20130;-85
2023/09/17 09:54:54;;;;;;;28.27;25.40;;;17.40;99.90;;;;;;4814708;29;20141;-85
2023/09/17 09:57:20;;;;;;;25.40;22.70;;;17.40;99.90;;;;;;4812724;29;20133;-85
2023/09/17 09:59:50;;;;;;;25.95;23.23;;;17.30;99.90;;;;;;4812157;29;20100;-85
2023/09/17 10:02:20;;;;;;;26.02;23.38;;;17.30;99.90;;;;;;4814423;29;20407;-85
2023/09/17 10:04:46;;;;;;;26.83;24.08;;;17.30;99.90;;;;;;4814368;29;20066;-84
2023/09/17 10:07:16;;;;;;;27.95;25.08;;;17.30;99.90;;;;;;4814714;29;20042;-86
2023/09/17 10:09:43;;;;;;;27.48;24.60;;;17.30;99.90;;;;;;4812983;29;20043;-85
2023/09/17 10:12:09;;;;;;;27.55;24.80;;;18.10;99.90;;;;;;4812024;29;20074;-85
2023/09/17 10:14:37;;;;;;;27.90;25.10;;;17.30;99.90;;;;;;4814469;29;20407;-85
2023/09/17 10:17:10;;;;;;;26.38;23.92;;;17.30;99.90;;;;;;4813835;29;20056;-85
2023/09/17 10:19:38;;;;;;;28.13;24.35;;;17.40;99.90;;;;;;4828916;29;20437;-85
2023/09/17 10:22:07;;;;;;;25.13;22.55;;;17.30;99.90;;;;;;4815758;29;20042;-85
2023/09/17 10:24:36;;;;;;;24.25;21.70;;;17.40;99.90;;;;;;4812778;29;20047;-85
2023/09/17 10:27:03;;;;;;;24.55;21.98;;;17.30;99.90;;;;;;4811675;29;20107;-84
2023/09/17 10:29:30;;;;;;;25.10;22.67;;;17.30;99.90;;;;;;4814634;29;20086;-85
2023/09/17 10:31:58;;;;;;;23.45;20.95;;;17.40;99.90;;;;;;4814688;29;20050;-85
2023/09/17 10:34:27;;;;;;;23.70;21.40;;;17.40;99.90;;;;;;4812568;29;20065;-85
2023/09/17 10:36:54;;;;;;;24.58;21.85;;;17.40;99.90;;;;;;4811443;29;20054;-86
2023/09/17 10:39:27;;;;;;;22.98;20.58;;;17.40;99.90;;;;;;4798276;29;20499;-85
2023/09/17 10:41:54;;;;;;;24.45;21.45;;;17.80;99.90;;;;;;4813114;29;20038;-86
2023/09/17 10:44:21;;;;;;;25.27;22.67;;;17.40;99.90;;;;;;4811506;29;20050;-85
2023/09/17 10:46:48;;;;;;;26.55;23.83;;;17.40;99.90;;;;;;4795385;29;20054;-85
2023/09/17 10:49:17;;;;;;;24.27;20.85;;;17.40;99.90;;;;;;4796212;29;20081;-86
2023/09/17 10:51:45;;;;;;;24.38;21.92;;;17.50;99.90;;;;;;4814219;29;20155;-86
2023/09/17 10:54:11;;;;;;;26.67;23.58;;;17.50;99.90;;;;;;4798964;29;20062;-85
2023/09/17 10:56:41;;;;;;;24.00;21.63;;;17.50;99.90;;;;;;4818864;29;20035;-86
2023/09/17 10:59:13;;;;;;;24.40;21.80;;;18.10;99.90;;;;;;4811153;29;20471;-85
2023/09/17 11:01:41;;;;;;;27.38;23.70;;;18.30;99.90;;;;;;4814846;29;20099;-86
2023/09/17 11:04:15;;;;;;;25.25;22.50;;;17.50;99.90;;;;;;4798802;29;20129;-85
2023/09/17 11:06:44;;;;;;;25.67;22.38;;;17.50;99.90;;;;;;4819103;29;20042;-85
2023/09/17 11:09:11;;;;;;;26.50;23.77;;;18.00;99.90;;;;;;4810555;29;20071;-87
2023/09/17 11:11:37;;;;;;;30.80;25.92;;;17.60;99.90;;;;;;4813236;29;20054;-87
2023/09/17 11:14:04;;;;;;;30.13;26.17;;;17.70;99.90;;;;;;4812498;29;20515;-87
2023/09/17 11:16:31;;;;;;;27.08;24.17;;;17.70;99.90;;;;;;4813801;29;20547;-87
2023/09/17 11:19:10;;;;;;;28.38;25.55;;;17.70;99.90;;;;;;4816950;29;20046;-88
2023/09/17 11:21:37;;;;;;;30.00;27.10;;;17.70;99.90;;;;;;4811709;29;20095;-88
2023/09/17 11:24:06;;;;;;;28.98;25.63;;;18.40;99.90;;;;;;4810137;29;20086;-88
2023/09/17 11:26:35;;;;;;;28.52;25.67;;;17.80;99.90;;;;;;4812401;29;20055;-88
2023/09/17 11:29:06;;;;;;;29.42;26.42;;;17.90;99.90;;;;;;4798684;29;20046;-88
2023/09/17 11:31:57;;;;;;;33.83;30.33;;;18.00;99.90;;;;;;4811390;29;20403;-87
2023/09/17 11:34:23;;;;;;;31.80;28.42;;;18.00;99.90;;;;;;4814946;29;20412;-88
2023/09/17 11:36:50;;;;;;;32.42;29.02;;;18.00;99.90;;;;;;4814681;29;20102;-87
2023/09/17 11:39:20;;;;;;;30.20;27.00;;;18.20;99.90;;;;;;4813669;29;20050;-87
2023/09/17 11:41:50;;;;;;;25.63;23.13;;;18.20;99.90;;;;;;4817227;29;20377;-87
2023/09/17 11:44:17;;;;;;;27.98;25.17;;;18.20;99.90;;;;;;4795089;29;20049;-87
2023/09/17 11:46:44;;;;;;;28.92;25.83;;;18.20;99.90;;;;;;4813555;29;20069;-87
2023/09/17 11:49:10;;;;;;;28.85;25.85;;;18.20;99.90;;;;;;4814844;29;20570;-86
2023/09/17 11:51:42;;;;;;;26.70;24.10;;;18.20;99.90;;;;;;4811917;29;20039;-87
2023/09/17 11:54:15;;;;;;;25.30;22.80;;;18.20;99.90;;;;;;4810563;29;20062;-87
2023/09/17 11:56:55;;;;;;;25.67;22.83;;;18.20;99.90;;;;;;4810162;29;20054;-87
2023/09/17 11:59:24;;;;;;;27.50;24.70;;;18.20;99.90;;;;;;4810127;29;20119;-87
2023/09/17 12:01:52;;;;;;;28.80;25.83;;;18.40;99.90;;;;;;4813209;29;20084;-87
2023/09/17 12:04:20;;;;;;;26.98;24.27;;;18.20;99.90;;;;;;4814800;29;20057;-86
2023/09/17 12:06:50;;;;;;;28.63;25.42;;;18.20;99.90;;;;;;4817624;29;20485;-86
2023/09/17 12:11:56;;;;;;;29.50;26.58;;;18.30;99.90;;;;;;4813703;29;20055;-85
2023/09/17 12:14:23;;;;;;;30.95;26.98;;;18.90;99.90;;;;;;4813002;29;20046;-86
2023/09/17 12:16:49;;;;;;;27.70;25.05;;;18.50;99.90;;;;;;4794770;29;20042;-86
2023/09/17 12:19:16;;;;;;;25.85;22.83;;;18.60;99.90;;;;;;4809495;29;20058;-85
2023/09/17 12:21:44;;;;;;;27.02;22.92;;;18.80;99.90;;;;;;4814237;29;20050;-86
2023/09/17 12:24:25;;;;;;;25.45;23.05;;;19.00;99.90;;;;;;4806803;29;20130;-86
2023/09/17 12:27:22;;;;;;;24.55;22.23;;;19.20;99.90;;;;;;4808911;29;20500;-85
2023/09/17 12:29:48;;;;;;;24.90;22.42;;;19.30;99.90;;;;;;4797464;29;20046;-87